Time;durP1;ratioP1;P1;durP2;ratioP2;P2;SDS_P1;SDS_P2;PMS_P1;PMS_P2;Temp;Humidity;BMP_temperature;BMP_pressure;BME280_temperature;BME280_humidity;BME280_pressure;Samples;Min_cycle;Max_cycle;Signal;HPM_P1;HPM_P2
2023/12/07 00:00:36;;;;;;;15.65;4.63;;;32.10;99.90;;;;;;5080389;28;20234;-70
2023/12/07 00:03:06;;;;;;;15.02;4.22;;;31.80;99.90;;;;;;5072521;28;20165;-69
2023/12/07 00:05:34;;;;;;;13.85;4.20;;;31.40;99.90;;;;;;5073136;28;20266;-69
2023/12/07 00:08:01;;;;;;;16.42;4.18;;;31.30;99.90;;;;;;5073088;28;20169;-71
2023/12/07 00:10:29;;;;;;;14.07;5.18;;;31.50;99.90;;;;;;5072713;28;20314;-71
2023/12/07 00:12:56;;;;;;;19.05;4.63;;;31.60;99.90;;;;;;5073524;28;20179;-72
2023/12/07 00:15:23;;;;;;;18.63;5.00;;;31.50;99.90;;;;;;5073530;28;20188;-72
2023/12/07 00:17:51;;;;;;;20.17;4.75;;;31.70;99.90;;;;;;5073659;28;20626;-71
2023/12/07 00:20:18;;;;;;;13.02;4.10;;;32.10;99.90;;;;;;5073462;28;20176;-72
2023/12/07 00:22:45;;;;;;;10.25;4.10;;;33.10;99.90;;;;;;5073714;28;20176;-73
2023/12/07 00:25:13;;;;;;;15.02;4.72;;;33.70;99.90;;;;;;5073406;28;20172;-72
2023/12/07 00:27:41;;;;;;;21.02;4.75;;;32.90;99.90;;;;;;5072692;28;20187;-72
2023/12/07 00:30:08;;;;;;;14.35;4.65;;;33.60;99.90;;;;;;5073071;28;20327;-72
2023/12/07 00:32:36;;;;;;;15.20;4.38;;;33.60;99.90;;;;;;5072251;28;20680;-72
2023/12/07 00:35:03;;;;;;;14.02;3.97;;;34.20;99.90;;;;;;5073441;28;20267;-71
2023/12/07 00:37:31;;;;;;;16.35;4.70;;;34.30;99.90;;;;;;5073493;28;20176;-72
2023/12/07 00:39:58;;;;;;;14.15;4.22;;;34.40;99.90;;;;;;5073204;28;20176;-71
2023/12/07 00:42:25;;;;;;;18.92;4.50;;;34.60;99.90;;;;;;5071900;28;20538;-72
2023/12/07 00:44:53;;;;;;;18.05;4.57;;;34.90;99.90;;;;;;5073023;28;20183;-72
2023/12/07 00:47:20;;;;;;;14.85;4.65;;;34.10;99.90;;;;;;5073272;28;20168;-71
2023/12/07 00:49:48;;;;;;;14.50;3.88;;;33.40;99.90;;;;;;5072956;28;20222;-73
2023/12/07 00:52:15;;;;;;;14.57;4.18;;;33.40;99.90;;;;;;5072976;28;20175;-71
2023/12/07 00:54:43;;;;;;;9.35;3.42;;;33.80;99.90;;;;;;5072891;28;20267;-71
2023/12/07 00:57:10;;;;;;;18.02;4.55;;;33.90;99.90;;;;;;5073024;28;20172;-72
2023/12/07 00:59:37;;;;;;;13.45;4.20;;;33.60;99.90;;;;;;5073169;28;20171;-73
2023/12/07 01:02:06;;;;;;;15.50;5.25;;;33.20;99.90;;;;;;5073219;28;20241;-71
2023/12/07 01:04:34;;;;;;;21.25;4.57;;;33.00;99.90;;;;;;5073102;28;20182;-72
2023/12/07 01:07:01;;;;;;;13.77;4.32;;;32.80;99.90;;;;;;5071398;28;20229;-71
2023/12/07 01:09:29;;;;;;;15.98;5.05;;;32.50;99.90;;;;;;5072786;28;20222;-72
2023/12/07 01:11:57;;;;;;;13.90;4.80;;;32.60;99.90;;;;;;5071855;28;20703;-72
2023/12/07 01:14:25;;;;;;;16.88;4.68;;;32.60;99.90;;;;;;5073038;28;20180;-72
2023/12/07 01:16:52;;;;;;;12.80;4.25;;;33.70;99.90;;;;;;5073059;28;20172;-72
2023/12/07 01:19:19;;;;;;;14.40;4.45;;;34.70;99.90;;;;;;5073074;28;20736;-72
2023/12/07 01:21:47;;;;;;;14.02;4.63;;;34.80;99.90;;;;;;5072855;28;20172;-72
2023/12/07 01:24:14;;;;;;;13.77;5.00;;;34.80;99.90;;;;;;5072897;28;20176;-71
2023/12/07 01:26:42;;;;;;;14.60;4.55;;;34.50;99.90;;;;;;5071504;28;20617;-72
2023/12/07 01:29:09;;;;;;;15.48;4.70;;;33.90;98.30;;;;;;5072647;28;20727;-71
2023/12/07 01:31:36;;;;;;;15.75;4.78;;;33.70;99.90;;;;;;5072971;28;20626;-72
2023/12/07 01:34:04;;;;;;;17.50;4.35;;;34.00;99.90;;;;;;5072895;28;20180;-72
2023/12/07 01:36:31;;;;;;;15.55;4.72;;;34.90;99.90;;;;;;5072713;28;20173;-72
2023/12/07 01:39:00;;;;;;;14.88;5.32;;;34.60;99.90;;;;;;5075081;28;20175;-71
2023/12/07 01:41:27;;;;;;;16.52;5.07;;;34.10;99.90;;;;;;5076710;28;20179;-71
2023/12/07 01:43:54;;;;;;;15.80;5.10;;;34.40;99.90;;;;;;5076350;28;20179;-70
2023/12/07 01:46:22;;;;;;;17.98;4.50;;;34.50;99.90;;;;;;5076351;28;20217;-72
2023/12/07 01:48:50;;;;;;;17.58;4.88;;;34.90;99.90;;;;;;5076217;28;20261;-72
2023/12/07 01:51:19;;;;;;;13.38;4.53;;;35.50;99.80;;;;;;5076354;28;20645;-72
2023/12/07 01:53:48;;;;;;;12.52;4.50;;;35.30;98.00;;;;;;5076781;28;20196;-73
2023/12/07 01:56:16;;;;;;;11.50;4.65;;;35.40;97.80;;;;;;5076246;28;20205;-73
2023/12/07 01:58:44;;;;;;;15.93;5.07;;;35.00;97.10;;;;;;5076459;28;20553;-74
2023/12/07 02:01:12;;;;;;;14.98;5.22;;;35.20;99.90;;;;;;5076131;28;20175;-72
2023/12/07 02:03:42;;;;;;;16.05;5.18;;;35.20;99.90;;;;;;5075913;28;20564;-74
2023/12/07 02:06:10;;;;;;;17.98;6.30;;;35.00;99.90;;;;;;5076035;28;20176;-73
2023/12/07 02:08:41;;;;;;;15.30;5.82;;;34.70;99.90;;;;;;5076070;28;20206;-72
2023/12/07 02:11:11;;;;;;;17.50;5.72;;;34.20;99.90;;;;;;5076112;28;20194;-72
2023/12/07 02:13:41;;;;;;;24.23;6.35;;;33.70;99.90;;;;;;5074696;28;20179;-72
2023/12/07 02:16:47;;;;;;;27.38;7.07;;;33.60;99.90;;;;;;5075801;28;20188;-73
2023/12/07 02:19:43;;;;;;;20.65;6.20;;;34.00;99.90;;;;;;5077202;28;20168;-73
2023/12/07 02:22:26;;;;;;;16.90;6.35;;;33.90;99.90;;;;;;5076458;28;20184;-72
2023/12/07 02:25:10;;;;;;;19.02;5.90;;;33.50;99.90;;;;;;5075418;28;20206;-73
2023/12/07 02:27:47;;;;;;;17.48;6.50;;;33.60;99.90;;;;;;5076076;28;20183;-72
2023/12/07 02:30:15;;;;;;;18.27;5.93;;;33.70;99.90;;;;;;5075230;28;20235;-73
2023/12/07 02:32:44;;;;;;;17.05;5.40;;;33.10;99.90;;;;;;5075551;28;20183;-73
2023/12/07 02:35:13;;;;;;;17.50;6.50;;;32.90;99.90;;;;;;5075631;28;20179;-74
2023/12/07 02:37:50;;;;;;;18.73;6.18;;;32.70;99.90;;;;;;5075480;28;20550;-72
2023/12/07 02:40:26;;;;;;;21.50;6.32;;;33.00;99.90;;;;;;5075621;28;20183;-73
2023/12/07 02:42:54;;;;;;;16.85;5.47;;;33.30;99.90;;;;;;5075985;28;20692;-72
2023/12/07 02:45:22;;;;;;;17.98;6.35;;;32.50;99.90;;;;;;5075226;28;20175;-74
2023/12/07 02:47:50;;;;;;;21.88;5.82;;;31.90;99.90;;;;;;5075293;28;20176;-72
2023/12/07 02:50:17;;;;;;;26.10;6.82;;;31.50;99.90;;;;;;5073026;28;20216;-72
2023/12/07 02:52:44;;;;;;;18.85;6.78;;;31.20;99.90;;;;;;5075238;28;20168;-73
2023/12/07 02:55:12;;;;;;;18.40;6.40;;;31.00;99.90;;;;;;5075078;28;20176;-73
2023/12/07 02:57:39;;;;;;;19.40;6.07;;;31.00;99.90;;;;;;5075036;28;20184;-73
2023/12/07 03:00:07;;;;;;;16.40;5.40;;;30.60;99.90;;;;;;5075013;28;20257;-73
2023/12/07 03:02:36;;;;;;;20.73;5.95;;;30.80;99.90;;;;;;5075507;28;20180;-72
2023/12/07 03:05:04;;;;;;;20.73;5.78;;;30.80;99.90;;;;;;5075206;28;20180;-72
2023/12/07 03:07:31;;;;;;;16.05;5.63;;;31.40;99.90;;;;;;5075041;28;20179;-72
2023/12/07 03:09:59;;;;;;;20.17;5.72;;;31.70;99.90;;;;;;5074676;28;20212;-72
2023/12/07 03:12:26;;;;;;;16.58;5.78;;;31.80;99.90;;;;;;5073905;28;20263;-70
2023/12/07 03:14:53;;;;;;;18.00;5.20;;;32.10;99.90;;;;;;5074236;28;20671;-71
2023/12/07 03:17:21;;;;;;;14.82;5.28;;;32.30;99.90;;;;;;5073217;28;20578;-71
2023/12/07 03:19:48;;;;;;;12.07;4.97;;;32.70;99.90;;;;;;5074623;28;20226;-72
2023/12/07 03:22:15;;;;;;;22.58;6.80;;;33.20;99.90;;;;;;5073001;28;20214;-71
2023/12/07 03:24:50;;;;;;;21.55;6.57;;;33.50;99.90;;;;;;5074886;28;20178;-71
2023/12/07 03:27:18;;;;;;;16.85;5.15;;;33.00;99.90;;;;;;5076831;28;20176;-70
2023/12/07 03:29:45;;;;;;;17.48;5.00;;;32.60;99.90;;;;;;5050874;28;20219;-71
2023/12/07 03:32:12;;;;;;;15.13;5.60;;;32.40;99.90;;;;;;5072354;28;20184;-70
2023/12/07 03:34:40;;;;;;;18.38;5.43;;;32.50;99.90;;;;;;5071729;28;20192;-70
2023/12/07 03:40:29;;;;;;;22.02;6.43;;;32.30;99.90;;;;;;5071859;28;20783;-71
2023/12/07 03:42:56;;;;;;;19.17;5.93;;;32.40;99.90;;;;;;5072309;28;20187;-70
2023/12/07 03:45:24;;;;;;;15.30;5.00;;;32.50;99.90;;;;;;5071966;28;20180;-70
2023/12/07 03:47:51;;;;;;;12.75;4.60;;;32.70;99.90;;;;;;5072287;28;20215;-71
2023/12/07 03:50:18;;;;;;;13.57;5.05;;;32.60;99.90;;;;;;5072185;28;20212;-71
2023/12/07 03:52:45;;;;;;;15.05;5.50;;;32.90;99.90;;;;;;5071745;28;20250;-69
2023/12/07 03:55:13;;;;;;;18.05;5.07;;;32.70;99.90;;;;;;5071761;28;20176;-70
2023/12/07 03:57:40;;;;;;;15.55;4.43;;;32.60;99.90;;;;;;5072217;28;20180;-69
2023/12/07 04:00:11;;;;;;;19.42;4.88;;;33.00;99.90;;;;;;5070164;28;20204;-70
2023/12/07 04:02:38;;;;;;;16.98;5.28;;;33.20;99.90;;;;;;5086812;28;20245;-71
2023/12/07 04:05:06;;;;;;;14.73;4.22;;;32.70;99.90;;;;;;5072495;28;20267;-71
2023/12/07 04:07:34;;;;;;;14.73;4.40;;;31.80;99.90;;;;;;5081390;28;20250;-69
2023/12/07 04:10:01;;;;;;;21.33;4.63;;;31.40;99.90;;;;;;5093348;28;20248;-70
2023/12/07 04:12:29;;;;;;;12.32;4.68;;;31.90;99.90;;;;;;5092923;28;20176;-69
2023/12/07 04:14:56;;;;;;;12.38;4.30;;;31.80;99.90;;;;;;5093703;28;20174;-69
2023/12/07 04:17:24;;;;;;;14.23;3.80;;;31.60;99.90;;;;;;5065230;28;20266;-70
2023/12/07 04:19:51;;;;;;;16.63;3.92;;;31.00;99.90;;;;;;5071606;28;20190;-71
2023/12/07 04:22:18;;;;;;;14.98;4.75;;;30.90;99.90;;;;;;5078962;28;20232;-71
2023/12/07 04:24:45;;;;;;;17.03;4.83;;;31.10;99.90;;;;;;5091679;28;20191;-72
2023/12/07 04:27:13;;;;;;;19.63;4.43;;;31.60;99.90;;;;;;5079708;28;20219;-70
2023/12/07 04:29:40;;;;;;;12.88;4.25;;;31.60;99.90;;;;;;5070737;28;20239;-70
2023/12/07 04:32:10;;;;;;;16.52;4.55;;;31.80;99.90;;;;;;5071123;28;20210;-72
2023/12/07 04:34:38;;;;;;;11.77;4.33;;;31.80;99.90;;;;;;5071594;28;20614;-71
2023/12/07 04:37:05;;;;;;;13.18;4.07;;;31.90;99.90;;;;;;5070356;28;20190;-70
2023/12/07 04:39:32;;;;;;;13.80;4.55;;;31.80;99.90;;;;;;5070681;28;20191;-71
2023/12/07 04:42:09;;;;;;;11.40;4.60;;;31.60;99.90;;;;;;5071271;28;20184;-72
2023/12/07 04:44:36;;;;;;;15.90;4.40;;;31.10;99.90;;;;;;5070544;28;20602;-70
2023/12/07 04:47:04;;;;;;;15.52;4.53;;;30.90;99.90;;;;;;5071271;28;20191;-70
2023/12/07 04:49:31;;;;;;;11.73;4.93;;;30.90;99.90;;;;;;5071709;28;20633;-70
2023/12/07 04:51:59;;;;;;;13.68;5.00;;;30.90;99.90;;;;;;5069953;28;20183;-69
2023/12/07 04:54:27;;;;;;;16.97;5.20;;;31.20;99.90;;;;;;5070898;28;20183;-70
2023/12/07 04:56:55;;;;;;;16.13;4.70;;;31.00;99.90;;;;;;5071522;28;20172;-71
2023/12/07 04:59:22;;;;;;;14.48;5.18;;;31.10;99.90;;;;;;5071240;28;20215;-71
2023/12/07 05:01:55;;;;;;;14.52;4.85;;;31.10;99.90;;;;;;5070906;28;20210;-69
2023/12/07 05:04:25;;;;;;;16.17;5.03;;;31.30;99.90;;;;;;5071284;28;20818;-70
2023/12/07 05:06:52;;;;;;;21.30;5.57;;;31.20;99.90;;;;;;5071397;28;20254;-70
2023/12/07 05:09:21;;;;;;;19.25;5.50;;;31.10;99.90;;;;;;5070785;28;20219;-70
2023/12/07 05:11:48;;;;;;;21.70;5.60;;;31.00;99.90;;;;;;5071147;28;20180;-70
2023/12/07 05:14:16;;;;;;;13.70;5.53;;;31.10;99.90;;;;;;5074400;28;20191;-71
2023/12/07 05:16:45;;;;;;;19.02;6.00;;;31.20;99.90;;;;;;5074963;28;20203;-69
2023/12/07 05:19:12;;;;;;;16.23;6.28;;;31.30;99.90;;;;;;5080756;28;20172;-71
2023/12/07 05:21:40;;;;;;;17.73;6.03;;;31.30;99.90;;;;;;5075301;28;20191;-70
2023/12/07 05:24:08;;;;;;;19.65;6.53;;;31.10;99.90;;;;;;5074643;28;20637;-71
2023/12/07 05:26:35;;;;;;;15.45;5.90;;;31.10;99.90;;;;;;5075177;28;20236;-71
2023/12/07 05:29:03;;;;;;;18.88;6.00;;;31.30;99.90;;;;;;5074819;28;20292;-69
2023/12/07 05:31:30;;;;;;;20.50;5.95;;;31.40;99.90;;;;;;5072941;28;20544;-71
2023/12/07 05:34:01;;;;;;;18.60;6.68;;;31.10;99.90;;;;;;5074536;28;20190;-69
2023/12/07 05:36:29;;;;;;;17.80;5.87;;;30.80;99.90;;;;;;5075012;28;20619;-70
2023/12/07 05:38:56;;;;;;;14.57;5.37;;;30.50;99.90;;;;;;5074207;28;20180;-70
2023/12/07 05:41:23;;;;;;;16.70;6.03;;;30.20;99.90;;;;;;5074365;28;20194;-71
2023/12/07 05:43:52;;;;;;;13.33;4.63;;;29.90;99.90;;;;;;5074594;28;20179;-69
2023/12/07 05:46:20;;;;;;;13.20;4.93;;;29.70;99.90;;;;;;5073060;28;20597;-70
2023/12/07 05:48:47;;;;;;;15.97;5.00;;;30.10;99.90;;;;;;5074240;28;20578;-71
2023/12/07 05:51:16;;;;;;;18.73;4.93;;;30.30;99.90;;;;;;5071611;28;20184;-69
2023/12/07 05:53:44;;;;;;;15.20;4.43;;;30.20;99.90;;;;;;5073725;28;20277;-71
2023/12/07 05:56:12;;;;;;;14.83;4.53;;;30.30;99.90;;;;;;5073931;28;20231;-71
2023/12/07 05:58:39;;;;;;;11.83;3.57;;;30.40;99.90;;;;;;5074030;28;20190;-73
2023/12/07 06:01:07;;;;;;;13.77;4.00;;;30.90;99.90;;;;;;5074034;28;20195;-70
2023/12/07 06:03:35;;;;;;;12.80;3.83;;;30.80;99.90;;;;;;5069560;28;20649;-70
2023/12/07 06:06:02;;;;;;;13.87;4.00;;;30.60;99.90;;;;;;5057389;28;20180;-71
2023/12/07 06:08:30;;;;;;;19.27;4.50;;;30.50;99.90;;;;;;5054091;28;20192;-70
2023/12/07 06:10:57;;;;;;;14.37;3.60;;;30.50;99.90;;;;;;5070600;28;20223;-69
2023/12/07 06:13:24;;;;;;;13.52;3.85;;;30.60;99.90;;;;;;5074253;28;20180;-70
2023/12/07 06:15:52;;;;;;;13.50;4.10;;;30.40;99.90;;;;;;5073119;28;20661;-70
2023/12/07 06:18:20;;;;;;;17.93;4.13;;;30.50;99.90;;;;;;5073988;28;20188;-69
2023/12/07 06:20:48;;;;;;;10.43;3.92;;;30.70;99.90;;;;;;5073874;28;20183;-70
2023/12/07 06:23:15;;;;;;;18.07;3.73;;;30.60;99.90;;;;;;5073583;28;20271;-71
2023/12/07 06:25:42;;;;;;;13.10;3.90;;;30.80;99.90;;;;;;5072652;28;20187;-70
2023/12/07 06:28:10;;;;;;;16.77;3.85;;;30.60;99.90;;;;;;5073692;28;20223;-69
2023/12/07 06:30:37;;;;;;;15.63;4.37;;;30.30;99.90;;;;;;5073355;28;20879;-71
2023/12/07 06:33:04;;;;;;;14.43;3.93;;;29.80;99.90;;;;;;5073873;28;20175;-71
2023/12/07 06:35:32;;;;;;;13.30;3.80;;;29.50;99.90;;;;;;5073533;28;20191;-70
2023/12/07 06:37:59;;;;;;;19.60;4.30;;;29.10;99.90;;;;;;5073173;28;20249;-72
2023/12/07 06:40:31;;;;;;;19.47;3.80;;;28.90;99.90;;;;;;5073236;28;20230;-70
2023/12/07 06:42:59;;;;;;;19.10;4.00;;;28.60;99.90;;;;;;5074653;28;20188;-69
2023/12/07 06:45:26;;;;;;;14.50;4.17;;;28.40;99.90;;;;;;5074690;28;20717;-69
2023/12/07 06:47:54;;;;;;;16.03;3.87;;;28.20;99.90;;;;;;5074821;28;20182;-69
2023/12/07 06:50:21;;;;;;;17.23;3.57;;;28.00;99.90;;;;;;5074864;28;20246;-70
2023/12/07 06:52:48;;;;;;;17.70;4.33;;;27.90;99.90;;;;;;5074845;28;20184;-70
2023/12/07 06:55:16;;;;;;;17.73;4.53;;;27.90;99.90;;;;;;5075085;28;20175;-69
2023/12/07 06:57:43;;;;;;;18.27;3.93;;;28.20;99.90;;;;;;5075170;28;20179;-69
2023/12/07 07:00:11;;;;;;;13.83;4.00;;;28.60;99.90;;;;;;5074719;28;20317;-70
2023/12/07 07:02:40;;;;;;;18.83;4.57;;;28.90;99.90;;;;;;5074913;28;20183;-69
2023/12/07 07:05:09;;;;;;;15.20;3.80;;;29.00;99.90;;;;;;5074626;28;20179;-70
2023/12/07 07:07:36;;;;;;;15.57;4.07;;;29.00;99.90;;;;;;5074936;28;20609;-70
2023/12/07 07:10:03;;;;;;;15.83;4.03;;;28.60;99.90;;;;;;5074520;28;20218;-70
2023/12/07 07:12:31;;;;;;;12.83;4.03;;;28.10;99.90;;;;;;5074779;28;20597;-70
2023/12/07 07:14:58;;;;;;;13.00;3.53;;;27.90;99.90;;;;;;5074565;28;20183;-70
2023/12/07 07:17:25;;;;;;;17.87;4.37;;;27.60;99.90;;;;;;5074278;28;20648;-70
2023/12/07 07:19:54;;;;;;;17.57;3.80;;;27.80;99.90;;;;;;5072882;28;20233;-70
2023/12/07 07:22:21;;;;;;;20.33;4.07;;;27.70;99.90;;;;;;5074433;28;20180;-69
2023/12/07 07:24:49;;;;;;;14.57;4.23;;;27.70;99.90;;;;;;5107270;27;20571;-69
2023/12/07 07:27:16;;;;;;;17.20;4.10;;;27.50;99.90;;;;;;5072949;28;20291;-71
2023/12/07 07:29:44;;;;;;;15.87;4.00;;;27.50;99.90;;;;;;5074366;28;20274;-70
2023/12/07 07:32:11;;;;;;;22.97;4.97;;;27.70;99.90;;;;;;5074509;28;20172;-70
2023/12/07 07:34:39;;;;;;;16.07;4.37;;;27.70;99.90;;;;;;5076033;28;20698;-70
2023/12/07 07:40:28;;;;;;;14.70;4.10;;;27.30;99.90;;;;;;5073556;28;20751;-70
2023/12/07 07:42:56;;;;;;;19.77;4.73;;;27.20;99.90;;;;;;5080385;28;20179;-69
2023/12/07 07:45:24;;;;;;;16.40;3.70;;;27.20;99.90;;;;;;5058019;28;20190;-69
2023/12/07 07:47:52;;;;;;;15.13;3.77;;;26.90;99.90;;;;;;5073629;28;20552;-70
2023/12/07 07:50:19;;;;;;;14.20;3.70;;;26.80;99.90;;;;;;5073837;28;20215;-70
2023/12/07 07:52:46;;;;;;;16.13;3.90;;;26.60;99.90;;;;;;5073816;28;20179;-69
2023/12/07 07:55:14;;;;;;;18.93;4.13;;;26.30;99.90;;;;;;5073827;28;20199;-70
2023/12/07 07:57:42;;;;;;;21.47;5.27;;;26.00;99.90;;;;;;5073745;28;20254;-70
2023/12/07 08:00:10;;;;;;;21.47;4.50;;;25.90;99.90;;;;;;5073502;28;20176;-70
2023/12/07 08:02:38;;;;;;;17.07;4.30;;;26.00;99.90;;;;;;5073667;28;20180;-69
2023/12/07 08:05:05;;;;;;;22.07;3.90;;;26.00;99.90;;;;;;5074020;28;20179;-70
2023/12/07 08:07:33;;;;;;;18.37;4.80;;;25.90;99.90;;;;;;5073502;28;20188;-70
2023/12/07 08:10:00;;;;;;;20.53;4.83;;;26.00;99.90;;;;;;5073351;28;20576;-70
2023/12/07 08:12:28;;;;;;;17.60;4.70;;;26.00;99.90;;;;;;5073616;28;20176;-70
2023/12/07 08:14:56;;;;;;;22.03;4.50;;;26.00;99.90;;;;;;5073815;28;20184;-69
2023/12/07 08:17:25;;;;;;;20.13;4.50;;;25.80;99.90;;;;;;5073114;28;20180;-70
2023/12/07 08:19:52;;;;;;;20.23;5.10;;;25.50;99.90;;;;;;5073478;28;20187;-69
2023/12/07 08:22:20;;;;;;;17.83;4.53;;;25.50;99.90;;;;;;5073553;28;20653;-69
2023/12/07 08:24:47;;;;;;;22.30;5.20;;;25.40;99.90;;;;;;5071808;28;20592;-70
2023/12/07 08:27:14;;;;;;;21.30;5.20;;;25.20;99.90;;;;;;5073625;28;20176;-70
2023/12/07 08:29:42;;;;;;;12.37;3.80;;;25.20;99.90;;;;;;5073329;28;20592;-69
2023/12/07 08:32:09;;;;;;;20.67;4.77;;;25.20;99.90;;;;;;5073397;28;20187;-71
2023/12/07 08:34:37;;;;;;;17.10;5.07;;;25.20;99.90;;;;;;5073771;28;20690;-70
2023/12/07 08:37:04;;;;;;;15.90;5.47;;;24.90;99.90;;;;;;5072953;28;20641;-70
2023/12/07 08:39:32;;;;;;;15.30;4.53;;;24.80;99.90;;;;;;5072987;28;20267;-69
2023/12/07 08:41:59;;;;;;;18.17;5.43;;;24.60;99.90;;;;;;5073164;28;20215;-69
2023/12/07 08:44:26;;;;;;;15.87;5.13;;;24.50;99.90;;;;;;5073316;28;20171;-70
2023/12/07 08:46:54;;;;;;;16.43;5.53;;;24.50;99.90;;;;;;5073232;28;20262;-70
2023/12/07 08:49:21;;;;;;;13.93;5.07;;;24.50;99.90;;;;;;5072632;28;20614;-69
2023/12/07 08:51:52;;;;;;;18.43;5.73;;;24.50;99.90;;;;;;5073483;28;20262;-70
2023/12/07 08:54:20;;;;;;;17.20;5.20;;;24.30;99.90;;;;;;5073009;28;20541;-70
2023/12/07 08:56:47;;;;;;;22.23;6.37;;;24.20;99.90;;;;;;5073143;28;20172;-70
2023/12/07 08:59:15;;;;;;;21.60;6.03;;;24.20;99.90;;;;;;5073076;28;20168;-69
2023/12/07 09:01:42;;;;;;;20.97;5.63;;;24.20;99.90;;;;;;5072864;28;20167;-70
2023/12/07 09:04:09;;;;;;;15.43;5.73;;;24.20;99.90;;;;;;5072986;28;20624;-68
2023/12/07 09:06:39;;;;;;;18.23;5.07;;;24.30;99.90;;;;;;5072692;28;20177;-69
2023/12/07 09:09:07;;;;;;;24.60;6.20;;;24.10;99.90;;;;;;5072632;28;20253;-67
2023/12/07 09:11:34;;;;;;;23.50;5.70;;;24.10;99.90;;;;;;5071827;28;20187;-68
2023/12/07 09:14:02;;;;;;;17.10;5.17;;;24.10;99.90;;;;;;5073184;28;20164;-67
2023/12/07 09:16:30;;;;;;;21.30;5.53;;;24.10;99.90;;;;;;5072110;28;20221;-67
2023/12/07 09:19:03;;;;;;;21.80;5.57;;;24.10;99.90;;;;;;5071988;28;20182;-67
2023/12/07 09:21:31;;;;;;;14.03;5.27;;;24.10;99.90;;;;;;5072166;28;20176;-68
2023/12/07 09:23:59;;;;;;;15.63;5.87;;;24.10;99.90;;;;;;5072105;28;20202;-67
2023/12/07 09:26:30;;;;;;;17.50;5.73;;;24.10;99.90;;;;;;5051709;28;20180;-70
2023/12/07 09:29:06;;;;;;;17.27;6.10;;;24.10;99.90;;;;;;5067026;28;20234;-70
2023/12/07 09:31:33;;;;;;;18.70;6.70;;;24.10;99.90;;;;;;5072757;28;20246;-71
2023/12/07 09:34:02;;;;;;;20.10;6.23;;;24.10;99.90;;;;;;5072682;28;20179;-70
2023/12/07 09:36:29;;;;;;;14.17;5.63;;;24.10;99.90;;;;;;5071732;28;20191;-70
2023/12/07 09:38:56;;;;;;;19.43;5.83;;;24.10;99.90;;;;;;5072550;28;20176;-70
2023/12/07 09:41:26;;;;;;;14.20;6.00;;;24.10;99.90;;;;;;5072777;28;20183;-70
2023/12/07 09:43:54;;;;;;;26.83;5.93;;;24.00;99.90;;;;;;5072693;28;20254;-70
2023/12/07 09:46:21;;;;;;;21.23;6.20;;;24.00;99.90;;;;;;5072428;28;20188;-69
2023/12/07 09:48:50;;;;;;;16.73;5.53;;;23.90;99.90;;;;;;5072304;28;20234;-69
2023/12/07 09:51:17;;;;;;;20.10;5.70;;;23.90;99.90;;;;;;5071561;28;20189;-70
2023/12/07 09:53:49;;;;;;;25.27;6.70;;;23.90;99.90;;;;;;5072401;28;20270;-71
2023/12/07 09:56:17;;;;;;;24.43;5.57;;;23.90;99.90;;;;;;5072752;28;20270;-70
2023/12/07 09:58:45;;;;;;;20.10;5.37;;;23.90;99.90;;;;;;5072626;28;20183;-70
2023/12/07 10:01:14;;;;;;;22.53;6.00;;;23.90;99.90;;;;;;5076275;28;20172;-71
2023/12/07 10:03:42;;;;;;;21.30;6.87;;;23.90;99.90;;;;;;5075646;28;20548;-71
2023/12/07 10:06:10;;;;;;;17.53;5.37;;;23.90;99.90;;;;;;5076138;28;20183;-71
2023/12/07 10:08:37;;;;;;;15.87;5.30;;;23.90;99.90;;;;;;5075502;28;20184;-70
2023/12/07 10:11:10;;;;;;;21.90;5.97;;;23.80;99.90;;;;;;5075492;28;20187;-70
2023/12/07 10:13:38;;;;;;;27.90;6.33;;;23.80;99.90;;;;;;5075855;28;20248;-69
2023/12/07 10:16:17;;;;;;;17.20;5.37;;;23.60;99.90;;;;;;5075549;28;20263;-69
2023/12/07 10:18:44;;;;;;;19.83;5.07;;;23.50;99.90;;;;;;5075704;28;20183;-69
2023/12/07 10:21:12;;;;;;;23.07;5.30;;;23.40;99.90;;;;;;5075622;28;20739;-69
2023/12/07 10:23:46;;;;;;;13.70;4.83;;;23.40;99.90;;;;;;5075704;28;20183;-68
2023/12/07 10:26:15;;;;;;;20.97;6.10;;;23.40;99.90;;;;;;5075575;28;20210;-69
2023/12/07 10:28:43;;;;;;;19.97;6.37;;;23.40;99.90;;;;;;5075451;28;20590;-69
2023/12/07 10:31:10;;;;;;;20.97;5.53;;;23.50;99.90;;;;;;5075859;28;20233;-69
2023/12/07 10:33:38;;;;;;;17.43;5.47;;;23.50;99.90;;;;;;5075568;28;20706;-70
2023/12/07 10:36:06;;;;;;;22.27;5.53;;;23.50;99.90;;;;;;5075473;28;20653;-70
2023/12/07 10:38:33;;;;;;;19.67;5.17;;;23.50;99.90;;;;;;5075120;28;20188;-70
2023/12/07 10:41:07;;;;;;;23.80;4.67;;;23.50;99.90;;;;;;5075208;28;20332;-68
2023/12/07 10:43:48;;;;;;;24.50;5.77;;;23.60;99.90;;;;;;5075584;28;20280;-69
2023/12/07 10:46:17;;;;;;;18.90;5.47;;;23.60;99.90;;;;;;5075242;28;20187;-69
2023/12/07 10:48:48;;;;;;;22.43;5.90;;;23.50;99.90;;;;;;5074995;28;20186;-69
2023/12/07 10:51:38;;;;;;;20.67;5.57;;;23.50;99.90;;;;;;5074689;28;20184;-69
2023/12/07 10:54:11;;;;;;;18.33;5.30;;;23.40;99.90;;;;;;5054248;28;20173;-69
2023/12/07 10:56:46;;;;;;;16.47;4.67;;;23.60;99.90;;;;;;5070219;28;20203;-69
2023/12/07 10:59:14;;;;;;;23.80;5.10;;;23.60;99.90;;;;;;5055144;28;20720;-69
2023/12/07 11:01:42;;;;;;;21.53;5.03;;;23.60;99.90;;;;;;5061468;28;20220;-69
2023/12/07 11:04:14;;;;;;;18.77;4.97;;;23.60;99.90;;;;;;5075054;28;20198;-69
2023/12/07 11:06:42;;;;;;;19.83;4.43;;;23.30;99.90;;;;;;5074509;28;20180;-70
2023/12/07 11:09:13;;;;;;;21.23;4.83;;;23.40;99.90;;;;;;5074432;28;20222;-69
2023/12/07 11:11:44;;;;;;;21.20;4.20;;;23.50;99.90;;;;;;5074059;28;20183;-69
2023/12/07 11:14:13;;;;;;;24.60;4.80;;;23.60;99.90;;;;;;5074703;28;20664;-68
2023/12/07 11:16:45;;;;;;;22.10;5.40;;;23.60;99.90;;;;;;5074281;28;20191;-70
2023/12/07 11:19:41;;;;;;;15.13;3.80;;;23.70;99.90;;;;;;5069249;28;20237;-69
2023/12/07 11:22:11;;;;;;;21.13;4.20;;;23.70;99.90;;;;;;5074650;28;20188;-70
2023/12/07 11:24:53;;;;;;;31.07;4.77;;;23.70;99.90;;;;;;5074647;28;20656;-69
2023/12/07 11:27:20;;;;;;;21.17;4.17;;;23.70;99.90;;;;;;5074297;28;20195;-69
2023/12/07 11:29:48;;;;;;;23.57;5.73;;;23.70;99.90;;;;;;5073913;28;20284;-69
2023/12/07 11:32:16;;;;;;;21.60;5.13;;;23.70;99.90;;;;;;5074466;28;20176;-69
2023/12/07 11:34:44;;;;;;;19.47;4.43;;;23.60;99.90;;;;;;5074404;28;20194;-68
2023/12/07 11:37:16;;;;;;;26.70;5.10;;;23.60;99.90;;;;;;5074311;28;20641;-69
2023/12/07 11:39:46;;;;;;;17.47;4.83;;;23.70;99.90;;;;;;5074486;28;20233;-69
2023/12/07 11:42:17;;;;;;;20.43;4.53;;;23.70;99.90;;;;;;5074179;28;20215;-69
2023/12/07 11:44:49;;;;;;;24.50;4.83;;;23.70;99.90;;;;;;5073124;28;20184;-69
2023/12/07 11:47:18;;;;;;;25.33;5.00;;;23.60;99.90;;;;;;5073975;28;20655;-69
2023/12/07 11:49:46;;;;;;;22.30;5.10;;;23.60;99.90;;;;;;5074098;28;20282;-69
2023/12/07 11:52:22;;;;;;;21.77;4.77;;;23.60;99.90;;;;;;5073830;28;20195;-69
2023/12/07 11:54:50;;;;;;;22.27;5.20;;;23.60;99.90;;;;;;5073279;28;20184;-69
2023/12/07 11:57:18;;;;;;;19.57;4.70;;;23.60;99.90;;;;;;5061709;28;20179;-70
2023/12/07 11:59:47;;;;;;;25.27;4.77;;;23.60;99.90;;;;;;5073263;28;20179;-70
2023/12/07 12:02:15;;;;;;;16.00;4.53;;;23.60;99.90;;;;;;5073699;28;20644;-68
2023/12/07 12:04:43;;;;;;;20.30;5.00;;;23.50;99.90;;;;;;5074070;28;20208;-68
2023/12/07 12:07:10;;;;;;;16.17;4.13;;;23.50;99.90;;;;;;5073940;28;20245;-68
2023/12/07 12:09:38;;;;;;;17.90;4.47;;;23.40;99.90;;;;;;5073314;28;20211;-68
2023/12/07 12:12:06;;;;;;;19.30;4.97;;;23.40;99.90;;;;;;5073375;28;20183;-69
2023/12/07 12:14:36;;;;;;;14.17;4.40;;;23.50;99.90;;;;;;5073144;28;20271;-68
2023/12/07 12:17:04;;;;;;;21.70;5.10;;;23.60;99.90;;;;;;5073703;28;20172;-68
2023/12/07 12:19:36;;;;;;;20.57;5.17;;;23.50;99.90;;;;;;5073617;28;20233;-68
2023/12/07 12:22:04;;;;;;;17.80;4.77;;;23.50;99.90;;;;;;5072820;28;20196;-68
2023/12/07 12:24:32;;;;;;;16.70;4.13;;;23.50;99.90;;;;;;5073442;28;20194;-70
2023/12/07 12:26:59;;;;;;;17.07;5.37;;;23.50;99.90;;;;;;5057823;28;20188;-70
2023/12/07 12:29:27;;;;;;;16.73;4.60;;;23.50;99.90;;;;;;5073207;28;20659;-69
2023/12/07 12:31:54;;;;;;;20.33;5.17;;;23.60;99.90;;;;;;5073711;28;20260;-69
2023/12/07 12:34:25;;;;;;;27.57;5.27;;;23.50;99.90;;;;;;5073231;28;20709;-70
2023/12/07 12:36:57;;;;;;;19.07;4.87;;;23.50;99.90;;;;;;5072527;28;20274;-68
2023/12/07 12:39:29;;;;;;;17.87;4.80;;;23.40;99.90;;;;;;5053676;28;20184;-69
2023/12/07 12:41:59;;;;;;;20.30;4.83;;;23.30;99.90;;;;;;5064648;28;20215;-71
2023/12/07 12:44:27;;;;;;;23.87;5.13;;;23.20;99.90;;;;;;5072999;28;20191;-69
2023/12/07 12:46:54;;;;;;;18.20;4.83;;;23.10;99.90;;;;;;5072769;28;20193;-69
2023/12/07 12:49:22;;;;;;;22.20;5.10;;;22.90;99.90;;;;;;5072978;28;20218;-69